Flight Track Log - Related Links

Times and Time Zones

All times are in EST time to prevent confusion due to time zone crossing. See the AMF1324 flight status page for this flight to view local times or setup timezone preferences in your user account.

Time Position Orientation Groundspeed Altitude Reporting Facility
EST Latitude Longitude Course Direction KTS MPH feet Rate Location/Type
Fri 06:48:13 AM 42.9333 -78.7333 194° South 152 175 1,400  Level Buffalo TRACON
Fri 06:49:13 AM 42.8833 -78.7500 194° South 212 244 3,400 2,025 Climbing Buffalo TRACON
Fri 06:50:50 AM 42.8692 -78.6119 98° East 226 260 6,700 1,975 Climbing Cleveland Center
Fri 06:51:51 AM 42.8583 -78.5192 99° East 238 274 8,600 1,659 Climbing Cleveland Center
Fri 06:52:53 AM 42.8503 -78.4356 97° East 245 282 10,100 1,415 Climbing Cleveland Center
Fri 06:53:54 AM 42.8422 -78.3406 97° East 252 290 11,500 1,317 Climbing Cleveland Center
Fri 06:54:56 AM 42.8331 -78.2425 97° East 261 300 12,800 732 Climbing Cleveland Center
Fri 06:55:57 AM 42.8242 -78.1386 97° East 277 319 13,000 98 Climbing Cleveland Center
Fri 06:56:58 AM 42.7981 -78.0086 105° East 297 342 13,000  Level Cleveland Center
Fri 06:58:00 AM 42.7697 -77.9014 110° East 301 346 13,000  Level Cleveland Center
Fri 06:59:01 AM 42.7364 -77.7961 113° Southeast 302 348 13,000  Level Cleveland Center
Fri 07:00:03 AM 42.7014 -77.6894 114° Southeast 304 350 13,000  Level Cleveland Center
Fri 07:01:04 AM 42.6658 -77.5783 113° Southeast 303 349 13,000  Level Cleveland Center
Fri 07:02:06 AM 42.6339 -77.4722 112° Southeast 304 350 13,000  Level Cleveland Center
Fri 07:03:07 AM 42.5997 -77.3689 114° Southeast 301 346 13,000  Level Cleveland Center
Fri 07:04:09 AM 42.5678 -77.2633 112° Southeast 301 346 13,000  Level Cleveland Center
Fri 07:05:10 AM 42.5353 -77.1592 113° Southeast 301 346 13,000  Level Cleveland Center
Fri 07:06:12 AM 42.5039 -77.0536 112° Southeast 302 348 13,000  Level Cleveland Center
Fri 07:07:13 AM 42.4725 -76.9486 112° Southeast 301 346 13,000 -98 Level Cleveland Center
Fri 07:08:15 AM 42.4297 -76.8258 115° Southeast 301 346 12,800 -400 Descending Cleveland Center
Fri 07:08:58 AM 42.4033 -76.7572 117° Southeast 310 357 12,300 -1,129 Descending New York Center
Fri 07:09:56 AM 42.3564 -76.6547 122° Southeast 320 368 10,900 -1,450 Descending New York Center
Fri 07:10:58 AM 42.3072 -76.5522 123° Southeast 325 374 9,400 -900 Descending New York Center
Fri 07:11:56 AM 42.2681 -76.4619 120° Southeast 325 374 9,100 -712 Descending New York Center
Fri 07:12:56 AM 42.2481 -76.3539 104° East 306 352 8,000 -1,488 Descending New York Center
Fri 07:13:57 AM 42.2322 -76.2461 101° East 294 338 6,100 -1,934 Descending New York Center
Fri 07:14:57 AM 42.2142 -76.1408 103° East 289 333 4,100 -1,550 Descending New York Center
Fri 07:15:57 AM 42.1911 -76.0494 109° East 277 319 3,000 -700 Descending New York Center
Fri 07:16:57 AM 42.1669 -75.9861 117° Southeast 231 266 2,700 -347 Descending New York Center
Fri 07:17:58 AM 42.1456 -75.9031 109° East 207 238 2,300 -393 Descending New York Center

Login

Don't have an account? Register now (free) for customized features, flight alerts, and more!